sensor_id;sensor_type;location;lat;lon;timestamp;pressure;altitude;pressure_sealevel;temperature;humidity
72409;BME280;60402;48.082;11.628;2024-02-16T00:00:43;95254.91;;;4.07;100.00
72409;BME280;60402;48.082;11.628;2024-02-16T00:03:31;95244.59;;;3.90;100.00
72409;BME280;60402;48.082;11.628;2024-02-16T00:06:16;95242.66;;;3.79;100.00
72409;BME280;60402;48.082;11.628;2024-02-16T00:09:02;95258.19;;;3.91;100.00
72409;BME280;60402;48.082;11.628;2024-02-16T00:11:48;95195.28;;;3.54;100.00
72409;BME280;60402;48.082;11.628;2024-02-16T00:14:36;95246.25;;;3.80;100.00
72409;BME280;60402;48.082;11.628;2024-02-16T00:17:21;95251.47;;;3.78;100.00
72409;BME280;60402;48.082;11.628;2024-02-16T00:20:08;95229.19;;;3.60;100.00
72409;BME280;60402;48.082;11.628;2024-02-16T00:22:53;95243.88;;;3.71;100.00
72409;BME280;60402;48.082;11.628;2024-02-16T00:25:39;95239.94;;;3.69;100.00
72409;BME280;60402;48.082;11.628;2024-02-16T00:28:26;95250.66;;;3.77;100.00
72409;BME280;60402;48.082;11.628;2024-02-16T00:31:11;95243.09;;;3.71;100.00
72409;BME280;60402;48.082;11.628;2024-02-16T00:33:57;95238.28;;;3.78;100.00
72409;BME280;60402;48.082;11.628;2024-02-16T00:36:43;95233.84;;;3.84;100.00
72409;BME280;60402;48.082;11.628;2024-02-16T00:39:29;95244.53;;;4.04;100.00
72409;BME280;60402;48.082;11.628;2024-02-16T00:42:15;95221.09;;;3.83;100.00
72409;BME280;60402;48.082;11.628;2024-02-16T00:45:01;95227.91;;;3.75;100.00
72409;BME280;60402;48.082;11.628;2024-02-16T00:47:47;95230.78;;;3.61;100.00
72409;BME280;60402;48.082;11.628;2024-02-16T00:50:34;95228.75;;;3.72;100.00
72409;BME280;60402;48.082;11.628;2024-02-16T00:53:20;95229.16;;;3.67;100.00
72409;BME280;60402;48.082;11.628;2024-02-16T00:56:06;95212.00;;;3.65;100.00
72409;BME280;60402;48.082;11.628;2024-02-16T00:58:52;95224.31;;;3.78;100.00
72409;BME280;60402;48.082;11.628;2024-02-16T01:01:38;95224.75;;;3.70;100.00
72409;BME280;60402;48.082;11.628;2024-02-16T01:04:24;95225.19;;;3.57;100.00
72409;BME280;60402;48.082;11.628;2024-02-16T01:07:09;95181.06;;;3.20;100.00
72409;BME280;60402;48.082;11.628;2024-02-16T01:09:55;95221.16;;;3.73;100.00
72409;BME280;60402;48.082;11.628;2024-02-16T01:12:41;95224.81;;;3.59;100.00
72409;BME280;60402;48.082;11.628;2024-02-16T01:15:27;95218.88;;;3.43;100.00
72409;BME280;60402;48.082;11.628;2024-02-16T01:18:13;95235.19;;;3.55;100.00
72409;BME280;60402;48.082;11.628;2024-02-16T01:20:59;95231.25;;;3.45;100.00
72409;BME280;60402;48.082;11.628;2024-02-16T01:23:44;95212.56;;;3.17;100.00
72409;BME280;60402;48.082;11.628;2024-02-16T01:26:31;95232.88;;;3.28;100.00
72409;BME280;60402;48.082;11.628;2024-02-16T01:29:17;95209.00;;;3.17;100.00
72409;BME280;60402;48.082;11.628;2024-02-16T01:32:02;95214.94;;;3.29;100.00
72409;BME280;60402;48.082;11.628;2024-02-16T01:34:48;95223.31;;;3.29;100.00
72409;BME280;60402;48.082;11.628;2024-02-16T01:37:35;95211.78;;;3.13;100.00
72409;BME280;60402;48.082;11.628;2024-02-16T01:40:21;95230.53;;;3.16;100.00
72409;BME280;60402;48.082;11.628;2024-02-16T01:43:06;95234.91;;;3.10;100.00
72409;BME280;60402;48.082;11.628;2024-02-16T01:45:52;95231.31;;;3.10;100.00
72409;BME280;60402;48.082;11.628;2024-02-16T01:48:38;95220.59;;;2.90;100.00
72409;BME280;60402;48.082;11.628;2024-02-16T01:51:26;95234.19;;;2.92;100.00
72409;BME280;60402;48.082;11.628;2024-02-16T01:54:12;95223.00;;;2.92;100.00
72409;BME280;60402;48.082;11.628;2024-02-16T01:56:58;95215.41;;;2.99;100.00
72409;BME280;60402;48.082;11.628;2024-02-16T01:59:45;95212.56;;;3.17;100.00
72409;BME280;60402;48.082;11.628;2024-02-16T02:02:31;95212.16;;;3.19;100.00
72409;BME280;60402;48.082;11.628;2024-02-16T02:05:16;95222.53;;;3.15;100.00
72409;BME280;60402;48.082;11.628;2024-02-16T02:08:09;95195.06;;;2.95;100.00
72409;BME280;60402;48.082;11.628;2024-02-16T02:10:55;95215.78;;;3.08;100.00
72409;BME280;60402;48.082;11.628;2024-02-16T02:13:41;95214.56;;;3.17;100.00
72409;BME280;60402;48.082;11.628;2024-02-16T02:16:27;95220.53;;;3.15;100.00
72409;BME280;60402;48.082;11.628;2024-02-16T02:19:12;95215.00;;;3.01;100.00
72409;BME280;60402;48.082;11.628;2024-02-16T02:21:58;95209.84;;;2.92;100.00
72409;BME280;60402;48.082;11.628;2024-02-16T02:24:44;95219.78;;;3.07;100.00
72409;BME280;60402;48.082;11.628;2024-02-16T02:27:31;95207.78;;;3.14;100.00
72409;BME280;60402;48.082;11.628;2024-02-16T02:30:16;95185.88;;;3.13;100.00
72409;BME280;60402;48.082;11.628;2024-02-16T02:33:02;95201.00;;;3.22;100.00
72409;BME280;60402;48.082;11.628;2024-02-16T02:35:48;95197.00;;;3.20;100.00
72409;BME280;60402;48.082;11.628;2024-02-16T02:38:34;95198.19;;;3.29;100.00
72409;BME280;60402;48.082;11.628;2024-02-16T02:41:20;95198.56;;;3.28;100.00
72409;BME280;60402;48.082;11.628;2024-02-16T02:44:05;95204.19;;;3.21;100.00
72409;BME280;60402;48.082;11.628;2024-02-16T02:46:51;95201.81;;;3.08;100.00
72409;BME280;60402;48.082;11.628;2024-02-16T02:49:37;95198.25;;;3.04;100.00
72409;BME280;60402;48.082;11.628;2024-02-16T02:52:23;95192.28;;;2.95;100.00
72409;BME280;60402;48.082;11.628;2024-02-16T02:55:08;95191.09;;;2.89;100.00
72409;BME280;60402;48.082;11.628;2024-02-16T02:57:54;95197.44;;;3.07;100.00
72409;BME280;60402;48.082;11.628;2024-02-16T03:00:40;95202.97;;;3.25;100.00
72409;BME280;60402;48.082;11.628;2024-02-16T03:03:26;95189.81;;;3.22;100.00
72409;BME280;60402;48.082;11.628;2024-02-16T03:06:12;95209.38;;;3.26;100.00
72409;BME280;60402;48.082;11.628;2024-02-16T03:08:58;95200.94;;;3.37;100.00
72409;BME280;60402;48.082;11.628;2024-02-16T03:11:44;95215.28;;;3.39;100.00
72409;BME280;60402;48.082;11.628;2024-02-16T03:14:30;95212.91;;;3.33;100.00
72409;BME280;60402;48.082;11.628;2024-02-16T03:17:16;95209.00;;;3.13;100.00
72409;BME280;60402;48.082;11.628;2024-02-16T03:20:02;95219.69;;;3.40;100.00
72409;BME280;60402;48.082;11.628;2024-02-16T03:22:48;95221.66;;;3.43;100.00
72409;BME280;60402;48.082;11.628;2024-02-16T03:25:34;95214.53;;;3.31;100.00
72409;BME280;60402;48.082;11.628;2024-02-16T03:28:20;95220.91;;;3.24;100.00
72409;BME280;60402;48.082;11.628;2024-02-16T03:31:23;95211.00;;;3.13;100.00
72409;BME280;60402;48.082;11.628;2024-02-16T03:34:09;95207.78;;;3.18;100.00
72409;BME280;60402;48.082;11.628;2024-02-16T03:36:55;95204.63;;;3.12;100.00
72409;BME280;60402;48.082;11.628;2024-02-16T03:39:40;95219.75;;;3.18;100.00
72409;BME280;60402;48.082;11.628;2024-02-16T03:42:26;95209.03;;;2.95;100.00
72409;BME280;60402;48.082;11.628;2024-02-16T03:45:12;95229.34;;;2.96;100.00
72409;BME280;60402;48.082;11.628;2024-02-16T03:47:57;95239.31;;;3.11;100.00
72409;BME280;60402;48.082;11.628;2024-02-16T03:50:43;95226.97;;;2.94;100.00
72409;BME280;60402;48.082;11.628;2024-02-16T03:53:29;95231.00;;;2.79;100.00
72409;BME280;60402;48.082;11.628;2024-02-16T03:56:20;95218.66;;;2.69;100.00
72409;BME280;60402;48.082;11.628;2024-02-16T03:59:06;95233.75;;;2.93;100.00
72409;BME280;60402;48.082;11.628;2024-02-16T04:01:52;95241.31;;;3.00;100.00
72409;BME280;60402;48.082;11.628;2024-02-16T04:04:38;95250.50;;;2.90;100.00
72409;BME280;60402;48.082;11.628;2024-02-16T04:07:23;95244.53;;;2.80;100.00
72409;BME280;60402;48.082;11.628;2024-02-16T04:10:09;95228.59;;;2.67;100.00
72409;BME280;60402;48.082;11.628;2024-02-16T04:12:55;95234.16;;;2.77;100.00
72409;BME280;60402;48.082;11.628;2024-02-16T04:15:40;95242.94;;;2.87;100.00
72409;BME280;60402;48.082;11.628;2024-02-16T04:18:26;95243.72;;;2.91;100.00
72409;BME280;60402;48.082;11.628;2024-02-16T04:21:12;95238.53;;;2.82;100.00
72409;BME280;60402;48.082;11.628;2024-02-16T04:23:58;95239.78;;;2.74;100.00
72409;BME280;60402;48.082;11.628;2024-02-16T04:26:44;95237.38;;;2.69;100.00
72409;BME280;60402;48.082;11.628;2024-02-16T04:29:29;95239.75;;;2.67;100.00
72409;BME280;60402;48.082;11.628;2024-02-16T04:32:15;95237.38;;;2.58;100.00
72409;BME280;60402;48.082;11.628;2024-02-16T04:35:00;95233.38;;;2.66;100.00
72409;BME280;60402;48.082;11.628;2024-02-16T04:37:46;95233.00;;;2.78;100.00
72409;BME280;60402;48.082;11.628;2024-02-16T04:40:36;95252.50;;;2.89;100.00
72409;BME280;60402;48.082;11.628;2024-02-16T04:43:22;95235.38;;;2.80;100.00
72409;BME280;60402;48.082;11.628;2024-02-16T04:46:14;95226.59;;;2.92;100.00
72409;BME280;60402;48.082;11.628;2024-02-16T04:48:59;95238.94;;;3.02;100.00
72409;BME280;60402;48.082;11.628;2024-02-16T04:51:45;95250.47;;;3.00;100.00
72409;BME280;60402;48.082;11.628;2024-02-16T04:54:31;95224.97;;;2.91;100.00
72409;BME280;60402;48.082;11.628;2024-02-16T04:57:17;95229.34;;;2.99;100.00
72409;BME280;60402;48.082;11.628;2024-02-16T05:00:03;95237.69;;;3.17;100.00
72409;BME280;60402;48.082;11.628;2024-02-16T05:02:50;95248.44;;;3.29;100.00
72409;BME280;60402;48.082;11.628;2024-02-16T05:05:36;95238.47;;;3.28;100.00
72409;BME280;60402;48.082;11.628;2024-02-16T05:08:22;95246.03;;;3.35;100.00
72409;BME280;60402;48.082;11.628;2024-02-16T05:11:08;95252.84;;;3.34;100.00
72409;BME280;60402;48.082;11.628;2024-02-16T05:13:54;95241.66;;;3.30;100.00
72409;BME280;60402;48.082;11.628;2024-02-16T05:16:46;95246.03;;;3.31;100.00
72409;BME280;60402;48.082;11.628;2024-02-16T05:19:32;95229.28;;;3.28;100.00
72409;BME280;60402;48.082;11.628;2024-02-16T05:22:18;95236.47;;;3.32;100.00
72409;BME280;60402;48.082;11.628;2024-02-16T05:25:04;95240.84;;;3.41;100.00
72409;BME280;60402;48.082;11.628;2024-02-16T05:27:50;95259.13;;;3.59;100.00
72409;BME280;60402;48.082;11.628;2024-02-16T05:30:36;95251.53;;;3.64;100.00
72409;BME280;60402;48.082;11.628;2024-02-16T05:33:21;95216.84;;;3.50;100.00
72409;BME280;60402;48.082;11.628;2024-02-16T05:36:07;95240.72;;;3.66;100.00
72409;BME280;60402;48.082;11.628;2024-02-16T05:38:53;95246.31;;;3.73;100.00
72409;BME280;60402;48.082;11.628;2024-02-16T05:41:41;95233.91;;;3.74;100.00
72409;BME280;60402;48.082;11.628;2024-02-16T05:44:27;95250.69;;;3.74;100.00
72409;BME280;60402;48.082;11.628;2024-02-16T05:47:13;95236.69;;;3.77;100.00
72409;BME280;60402;48.082;11.628;2024-02-16T05:49:58;95244.72;;;3.72;100.00
72409;BME280;60402;48.082;11.628;2024-02-16T05:52:44;95229.19;;;3.60;100.00
72409;BME280;60402;48.082;11.628;2024-02-16T05:55:30;95231.97;;;3.60;100.00
72409;BME280;60402;48.082;11.628;2024-02-16T05:58:15;95227.56;;;3.66;100.00
72409;BME280;60402;48.082;11.628;2024-02-16T06:01:01;95244.34;;;3.63;100.00
72409;BME280;60402;48.082;11.628;2024-02-16T06:03:46;95258.69;;;3.65;100.00
72409;BME280;60402;48.082;11.628;2024-02-16T06:06:32;95242.78;;;3.58;100.00
72409;BME280;60402;48.082;11.628;2024-02-16T06:09:21;95244.72;;;3.65;100.00
72409;BME280;60402;48.082;11.628;2024-02-16T06:12:06;95209.28;;;3.47;100.00
72409;BME280;60402;48.082;11.628;2024-02-16T06:14:52;95259.44;;;3.83;100.00
72409;BME280;60402;48.082;11.628;2024-02-16T06:17:39;95265.44;;;3.81;100.00
72409;BME280;60402;48.082;11.628;2024-02-16T06:20:26;95262.19;;;3.90;100.00
72409;BME280;60402;48.082;11.628;2024-02-16T06:23:11;95264.59;;;3.81;100.00
72409;BME280;60402;48.082;11.628;2024-02-16T06:25:57;95248.72;;;3.64;100.00
72409;BME280;60402;48.082;11.628;2024-02-16T06:28:43;95265.81;;;3.76;100.00
72409;BME280;60402;48.082;11.628;2024-02-16T06:31:28;95279.38;;;3.85;100.00
72409;BME280;60402;48.082;11.628;2024-02-16T06:34:14;95266.22;;;3.82;100.00
72409;BME280;60402;48.082;11.628;2024-02-16T06:37:00;95298.13;;;3.84;100.00
72409;BME280;60402;48.082;11.628;2024-02-16T06:39:46;95300.50;;;4.00;100.00
72409;BME280;60402;48.082;11.628;2024-02-16T06:42:32;95295.28;;;4.02;100.00
72409;BME280;60402;48.082;11.628;2024-02-16T06:45:19;95314.38;;;4.18;100.00
72409;BME280;60402;48.082;11.628;2024-02-16T06:48:06;95315.56;;;4.17;100.00
72409;BME280;60402;48.082;11.628;2024-02-16T06:50:51;95331.94;;;4.22;100.00
72409;BME280;60402;48.082;11.628;2024-02-16T06:53:37;95322.69;;;4.32;100.00
72409;BME280;60402;48.082;11.628;2024-02-16T06:56:23;95335.00;;;4.49;100.00
72409;BME280;60402;48.082;11.628;2024-02-16T06:59:09;95338.50;;;4.64;100.00
72409;BME280;60402;48.082;11.628;2024-02-16T07:01:55;95338.03;;;4.73;100.00
72409;BME280;60402;48.082;11.628;2024-02-16T07:04:40;95339.50;;;4.92;100.00
72409;BME280;60402;48.082;11.628;2024-02-16T07:07:26;95334.59;;;5.06;100.00
72409;BME280;60402;48.082;11.628;2024-02-16T07:10:12;95344.44;;;5.25;100.00
72409;BME280;60402;48.082;11.628;2024-02-16T07:12:59;95346.44;;;5.28;100.00
72409;BME280;60402;48.082;11.628;2024-02-16T07:15:45;95363.88;;;5.47;100.00
72409;BME280;60402;48.082;11.628;2024-02-16T07:18:30;95343.78;;;5.55;100.00
72409;BME280;60402;48.082;11.628;2024-02-16T07:21:16;95355.97;;;5.76;100.00
72409;BME280;60402;48.082;11.628;2024-02-16T07:24:04;95354.88;;;6.07;100.00
72409;BME280;60402;48.082;11.628;2024-02-16T07:26:50;95359.16;;;6.15;100.00
72409;BME280;60402;48.082;11.628;2024-02-16T07:29:36;95343.84;;;6.24;100.00
72409;BME280;60402;48.082;11.628;2024-02-16T07:32:23;95373.06;;;6.60;100.00
72409;BME280;60402;48.082;11.628;2024-02-16T07:35:09;95355.31;;;6.67;100.00
72409;BME280;60402;48.082;11.628;2024-02-16T07:37:55;95362.66;;;6.88;100.00
72409;BME280;60402;48.082;11.628;2024-02-16T07:40:41;95357.38;;;7.17;100.00
72409;BME280;60402;48.082;11.628;2024-02-16T07:43:27;95371.47;;;7.64;100.00
72409;BME280;60402;48.082;11.628;2024-02-16T07:46:12;95367.84;;;8.10;100.00
72409;BME280;60402;48.082;11.628;2024-02-16T07:48:58;95332.81;;;8.31;99.55
72409;BME280;60402;48.082;11.628;2024-02-16T07:51:44;95369.38;;;9.92;94.01
72409;BME280;60402;48.082;11.628;2024-02-16T07:54:30;95371.84;;;11.07;85.38
72409;BME280;60402;48.082;11.628;2024-02-16T07:57:15;95358.16;;;12.95;75.82
72409;BME280;60402;48.082;11.628;2024-02-16T08:00:02;95371.91;;;13.59;71.17
72409;BME280;60402;48.082;11.628;2024-02-16T08:02:49;95362.53;;;13.80;68.22
72409;BME280;60402;48.082;11.628;2024-02-16T08:05:34;95371.19;;;14.53;67.51
72409;BME280;60402;48.082;11.628;2024-02-16T08:08:22;95381.63;;;16.77;60.97
72409;BME280;60402;48.082;11.628;2024-02-16T08:11:08;95380.16;;;15.25;60.30
72409;BME280;60402;48.082;11.628;2024-02-16T08:13:54;95378.63;;;14.69;63.35
72409;BME280;60402;48.082;11.628;2024-02-16T08:16:41;95369.38;;;14.01;67.11
72409;BME280;60402;48.082;11.628;2024-02-16T08:19:36;95391.38;;;13.69;69.29
72409;BME280;60402;48.082;11.628;2024-02-16T08:22:22;95379.59;;;13.18;72.14
72409;BME280;60402;48.082;11.628;2024-02-16T08:25:08;95387.72;;;12.85;74.68
72409;BME280;60402;48.082;11.628;2024-02-16T08:27:54;95376.03;;;12.39;76.12
72409;BME280;60402;48.082;11.628;2024-02-16T08:30:40;95374.28;;;12.19;77.30
72409;BME280;60402;48.082;11.628;2024-02-16T08:33:27;95378.81;;;12.04;78.63
72409;BME280;60402;48.082;11.628;2024-02-16T08:36:14;95378.66;;;11.60;78.75
72409;BME280;60402;48.082;11.628;2024-02-16T08:39:00;95399.81;;;11.43;78.89
72409;BME280;60402;48.082;11.628;2024-02-16T08:41:45;95384.88;;;11.30;79.46
72409;BME280;60402;48.082;11.628;2024-02-16T08:44:33;95396.19;;;11.42;79.66
72409;BME280;60402;48.082;11.628;2024-02-16T08:47:19;95391.66;;;11.70;78.50
72409;BME280;60402;48.082;11.628;2024-02-16T08:50:05;95389.25;;;12.07;75.86
72409;BME280;60402;48.082;11.628;2024-02-16T08:52:52;95394.19;;;12.28;73.43
72409;BME280;60402;48.082;11.628;2024-02-16T08:55:38;95394.53;;;12.31;72.57
72409;BME280;60402;48.082;11.628;2024-02-16T08:58:24;95389.13;;;12.23;70.19
72409;BME280;60402;48.082;11.628;2024-02-16T09:01:09;95396.94;;;12.19;69.68
72409;BME280;60402;48.082;11.628;2024-02-16T09:03:55;95387.97;;;12.56;70.47
72409;BME280;60402;48.082;11.628;2024-02-16T09:06:41;95384.88;;;13.28;69.55
72409;BME280;60402;48.082;11.628;2024-02-16T09:09:27;95386.13;;;13.27;64.55
72409;BME280;60402;48.082;11.628;2024-02-16T09:12:13;95394.97;;;13.61;66.05
72409;BME280;60402;48.082;11.628;2024-02-16T09:14:59;95395.94;;;13.67;64.62
72409;BME280;60402;48.082;11.628;2024-02-16T09:17:45;95384.94;;;13.87;64.40
72409;BME280;60402;48.082;11.628;2024-02-16T09:20:31;95380.88;;;14.06;64.73
72409;BME280;60402;48.082;11.628;2024-02-16T09:23:16;95387.72;;;14.18;63.82
72409;BME280;60402;48.082;11.628;2024-02-16T09:26:02;95400.84;;;14.43;64.18
72409;BME280;60402;48.082;11.628;2024-02-16T09:28:48;95397.69;;;14.23;63.50
72409;BME280;60402;48.082;11.628;2024-02-16T09:31:34;95392.63;;;14.18;61.98
72409;BME280;60402;48.082;11.628;2024-02-16T09:34:19;95406.69;;;14.30;62.46
72409;BME280;60402;48.082;11.628;2024-02-16T09:37:05;95404.28;;;14.20;62.44
72409;BME280;60402;48.082;11.628;2024-02-16T09:39:51;95400.19;;;14.21;61.05
72409;BME280;60402;48.082;11.628;2024-02-16T09:42:38;95410.47;;;14.27;61.61
72409;BME280;60402;48.082;11.628;2024-02-16T09:45:24;95407.72;;;14.82;61.48
72409;BME280;60402;48.082;11.628;2024-02-16T09:48:11;95403.56;;;15.20;60.12
72409;BME280;60402;48.082;11.628;2024-02-16T09:50:57;95407.72;;;14.73;58.05
72409;BME280;60402;48.082;11.628;2024-02-16T09:53:50;95387.41;;;15.26;57.24
72409;BME280;60402;48.082;11.628;2024-02-16T09:56:37;95402.22;;;15.58;55.73
72409;BME280;60402;48.082;11.628;2024-02-16T09:59:23;95376.19;;;15.23;55.14
72409;BME280;60402;48.082;11.628;2024-02-16T10:02:09;95394.41;;;15.07;54.88
72409;BME280;60402;48.082;11.628;2024-02-16T10:04:54;95412.50;;;15.46;53.98
72409;BME280;60402;48.082;11.628;2024-02-16T10:07:43;95412.97;;;15.54;53.55
72409;BME280;60402;48.082;11.628;2024-02-16T10:10:29;95413.72;;;15.82;54.66
72409;BME280;60402;48.082;11.628;2024-02-16T10:13:17;95412.53;;;15.37;52.99
72409;BME280;60402;48.082;11.628;2024-02-16T10:16:09;95401.59;;;15.45;54.22
72409;BME280;60402;48.082;11.628;2024-02-16T10:19:04;95411.13;;;15.23;54.62
72409;BME280;60402;48.082;11.628;2024-02-16T10:21:50;95409.44;;;14.80;54.40
72409;BME280;60402;48.082;11.628;2024-02-16T10:24:36;95398.34;;;14.45;55.23
72409;BME280;60402;48.082;11.628;2024-02-16T10:27:24;95415.56;;;14.42;56.31
72409;BME280;60402;48.082;11.628;2024-02-16T10:30:10;95407.19;;;14.47;55.38
72409;BME280;60402;48.082;11.628;2024-02-16T10:32:57;95398.78;;;14.25;55.61
72409;BME280;60402;48.082;11.628;2024-02-16T10:35:45;95394.22;;;14.28;54.97
72409;BME280;60402;48.082;11.628;2024-02-16T10:38:32;95398.78;;;14.35;54.63
72409;BME280;60402;48.082;11.628;2024-02-16T10:41:19;95398.84;;;14.53;55.49
72409;BME280;60402;48.082;11.628;2024-02-16T10:44:06;95393.50;;;14.55;53.01
72409;BME280;60402;48.082;11.628;2024-02-16T10:46:52;95379.28;;;14.82;53.78
72409;BME280;60402;48.082;11.628;2024-02-16T10:49:37;95400.75;;;14.83;53.22
72409;BME280;60402;48.082;11.628;2024-02-16T10:52:24;95406.28;;;14.69;51.45
72409;BME280;60402;48.082;11.628;2024-02-16T10:55:11;95397.13;;;14.55;52.12
72409;BME280;60402;48.082;11.628;2024-02-16T10:57:57;95406.13;;;14.72;51.87
72409;BME280;60402;48.082;11.628;2024-02-16T11:00:57;95399.63;;;14.72;50.83
72409;BME280;60402;48.082;11.628;2024-02-16T11:03:43;95391.75;;;14.85;51.05
72409;BME280;60402;48.082;11.628;2024-02-16T11:06:28;95400.91;;;14.98;50.64
72409;BME280;60402;48.082;11.628;2024-02-16T11:12:14;95398.66;;;15.21;51.81
72409;BME280;60402;48.082;11.628;2024-02-16T11:15:03;95388.69;;;15.25;52.44
72409;BME280;60402;48.082;11.628;2024-02-16T11:17:50;95397.00;;;15.47;52.73
72409;BME280;60402;48.082;11.628;2024-02-16T11:20:38;95380.81;;;15.11;52.08
72409;BME280;60402;48.082;11.628;2024-02-16T11:23:27;95390.75;;;15.25;52.16
72409;BME280;60402;48.082;11.628;2024-02-16T11:26:17;95385.19;;;15.40;53.32
72409;BME280;60402;48.082;11.628;2024-02-16T11:29:02;95384.88;;;15.80;52.44
72409;BME280;60402;48.082;11.628;2024-02-16T11:31:48;95372.44;;;15.59;53.57
72409;BME280;60402;48.082;11.628;2024-02-16T11:34:34;95371.44;;;15.80;52.98
72409;BME280;60402;48.082;11.628;2024-02-16T11:37:20;95375.28;;;15.68;53.82
72409;BME280;60402;48.082;11.628;2024-02-16T11:40:06;95371.47;;;15.71;53.67
72409;BME280;60402;48.082;11.628;2024-02-16T11:42:58;95361.63;;;15.81;53.04
72409;BME280;60402;48.082;11.628;2024-02-16T11:45:44;95370.84;;;15.76;53.35
72409;BME280;60402;48.082;11.628;2024-02-16T11:48:29;95349.28;;;15.75;54.17
72409;BME280;60402;48.082;11.628;2024-02-16T11:51:17;95337.31;;;15.62;54.38
72409;BME280;60402;48.082;11.628;2024-02-16T11:54:02;95369.81;;;15.89;55.55
72409;BME280;60402;48.082;11.628;2024-02-16T11:56:49;95360.25;;;16.01;56.23
72409;BME280;60402;48.082;11.628;2024-02-16T11:59:36;95369.50;;;16.20;55.72
72409;BME280;60402;48.082;11.628;2024-02-16T12:02:24;95342.91;;;15.90;54.40
72409;BME280;60402;48.082;11.628;2024-02-16T12:05:13;95363.41;;;16.03;55.39
72409;BME280;60402;48.082;11.628;2024-02-16T12:07:59;95367.50;;;16.11;54.74
72409;BME280;60402;48.082;11.628;2024-02-16T12:10:46;95348.56;;;16.23;54.92
72409;BME280;60402;48.082;11.628;2024-02-16T12:13:33;95365.19;;;16.24;54.58
72409;BME280;60402;48.082;11.628;2024-02-16T12:16:19;95347.25;;;16.33;53.82
72409;BME280;60402;48.082;11.628;2024-02-16T12:19:05;95348.44;;;16.41;54.27
72409;BME280;60402;48.082;11.628;2024-02-16T12:21:52;95368.16;;;16.54;52.92
72409;BME280;60402;48.082;11.628;2024-02-16T12:24:38;95355.47;;;16.31;53.89
72409;BME280;60402;48.082;11.628;2024-02-16T12:27:23;95363.25;;;16.30;53.83
72409;BME280;60402;48.082;11.628;2024-02-16T12:30:09;95366.22;;;16.36;54.64
72409;BME280;60402;48.082;11.628;2024-02-16T12:32:56;95361.06;;;16.49;53.11
72409;BME280;60402;48.082;11.628;2024-02-16T12:35:42;95360.09;;;16.28;54.45
72409;BME280;60402;48.082;11.628;2024-02-16T12:38:28;95352.34;;;16.29;55.05
72409;BME280;60402;48.082;11.628;2024-02-16T12:41:13;95363.13;;;16.49;54.55
72409;BME280;60402;48.082;11.628;2024-02-16T12:43:59;95371.19;;;16.26;55.05
72409;BME280;60402;48.082;11.628;2024-02-16T12:46:45;95376.59;;;16.24;55.65
72409;BME280;60402;48.082;11.628;2024-02-16T12:49:31;95383.25;;;16.21;56.95
72409;BME280;60402;48.082;11.628;2024-02-16T12:52:19;95372.75;;;16.27;55.91
72409;BME280;60402;48.082;11.628;2024-02-16T12:55:08;95358.81;;;16.29;56.37
72409;BME280;60402;48.082;11.628;2024-02-16T12:57:55;95367.13;;;16.42;56.46
72409;BME280;60402;48.082;11.628;2024-02-16T13:00:42;95365.06;;;16.43;56.52
72409;BME280;60402;48.082;11.628;2024-02-16T13:03:28;95367.13;;;16.42;57.07
72409;BME280;60402;48.082;11.628;2024-02-16T13:06:14;95359.72;;;16.35;57.16
72409;BME280;60402;48.082;11.628;2024-02-16T13:08:59;95370.00;;;16.42;56.85
72409;BME280;60402;48.082;11.628;2024-02-16T13:11:45;95356.31;;;16.22;57.54
72409;BME280;60402;48.082;11.628;2024-02-16T13:14:31;95366.38;;;16.32;58.31
72409;BME280;60402;48.082;11.628;2024-02-16T13:17:16;95359.44;;;16.33;58.29
72409;BME280;60402;48.082;11.628;2024-02-16T13:20:02;95374.03;;;16.50;58.09
72409;BME280;60402;48.082;11.628;2024-02-16T13:22:52;95366.75;;;16.49;58.17
72409;BME280;60402;48.082;11.628;2024-02-16T13:25:37;95325.69;;;16.32;58.39
72409;BME280;60402;48.082;11.628;2024-02-16T13:28:23;95366.56;;;16.53;57.73
72409;BME280;60402;48.082;11.628;2024-02-16T13:31:09;95372.41;;;16.58;58.40
72409;BME280;60402;48.082;11.628;2024-02-16T13:33:56;95372.56;;;16.55;57.38
72409;BME280;60402;48.082;11.628;2024-02-16T13:36:42;95371.22;;;16.65;56.96
72409;BME280;60402;48.082;11.628;2024-02-16T13:39:28;95381.91;;;16.55;56.34
72409;BME280;60402;48.082;11.628;2024-02-16T13:42:13;95353.78;;;16.48;56.40
72409;BME280;60402;48.082;11.628;2024-02-16T13:44:59;95378.59;;;16.57;56.33
72409;BME280;60402;48.082;11.628;2024-02-16T13:47:45;95385.47;;;16.65;56.87
72409;BME280;60402;48.082;11.628;2024-02-16T13:50:30;95379.06;;;16.55;57.04
72409;BME280;60402;48.082;11.628;2024-02-16T13:53:17;95386.47;;;16.62;56.78
72409;BME280;60402;48.082;11.628;2024-02-16T13:56:03;95376.81;;;16.59;57.50
72409;BME280;60402;48.082;11.628;2024-02-16T13:58:49;95387.22;;;16.48;58.79
72409;BME280;60402;48.082;11.628;2024-02-16T14:01:36;95384.31;;;16.57;58.62
72409;BME280;60402;48.082;11.628;2024-02-16T14:04:22;95398.31;;;16.46;59.41
72409;BME280;60402;48.082;11.628;2024-02-16T14:07:09;95384.88;;;16.37;59.41
72409;BME280;60402;48.082;11.628;2024-02-16T14:09:55;95400.31;;;16.30;59.96
72409;BME280;60402;48.082;11.628;2024-02-16T14:12:41;95411.72;;;16.30;61.22
72409;BME280;60402;48.082;11.628;2024-02-16T14:15:26;95417.25;;;16.34;61.26
72409;BME280;60402;48.082;11.628;2024-02-16T14:18:12;95412.34;;;16.34;60.67
72409;BME280;60402;48.082;11.628;2024-02-16T14:20:57;95417.19;;;16.43;61.07
72409;BME280;60402;48.082;11.628;2024-02-16T14:23:43;95415.06;;;16.29;61.68
72409;BME280;60402;48.082;11.628;2024-02-16T14:26:29;95411.09;;;16.26;61.46
72409;BME280;60402;48.082;11.628;2024-02-16T14:29:14;95406.13;;;16.12;62.97
72409;BME280;60402;48.082;11.628;2024-02-16T14:32:00;95413.66;;;16.24;62.28